createdAt,value
2023-04-13T00:01:27.718Z,3.83
2023-04-13T00:03:55.315Z,3.55
2023-04-13T00:06:22.969Z,3.78
2023-04-13T00:08:50.508Z,3.63
2023-04-13T00:11:17.889Z,3.78
2023-04-13T00:13:47.787Z,3.22
2023-04-13T00:16:16.872Z,3.10
2023-04-13T00:18:45.255Z,3.85
2023-04-13T00:21:12.502Z,3.17
2023-04-13T00:23:40.056Z,3.55
2023-04-13T00:26:07.370Z,3.03
2023-04-13T00:28:34.596Z,3.00
2023-04-13T00:31:02.042Z,3.22
2023-04-13T00:33:32.010Z,2.80
2023-04-13T00:36:00.139Z,3.28
2023-04-13T00:38:29.914Z,3.22
2023-04-13T00:40:57.475Z,2.70
2023-04-13T00:43:25.382Z,2.90
2023-04-13T00:45:52.716Z,3.00
2023-04-13T00:48:20.775Z,2.53
2023-04-13T00:50:48.594Z,2.90
2023-04-13T00:53:16.571Z,2.70
2023-04-13T00:55:45.008Z,3.00
2023-04-13T00:58:13.584Z,3.38
2023-04-13T01:00:43.209Z,2.92
2023-04-13T01:03:11.717Z,3.00
2023-04-13T01:06:28.790Z,2.85
2023-04-13T01:09:26.452Z,3.08
2023-04-13T01:12:19.613Z,3.42
2023-04-13T01:15:15.757Z,3.20
2023-04-13T01:17:57.014Z,2.90
2023-04-13T01:20:28.957Z,3.00
2023-04-13T01:23:03.231Z,3.85
2023-04-13T01:26:01.645Z,3.30
2023-04-13T01:28:30.531Z,2.90
2023-04-13T01:31:00.536Z,2.42
2023-04-13T01:33:30.667Z,2.97
2023-04-13T01:36:03.343Z,3.17
2023-04-13T01:38:31.805Z,3.10
2023-04-13T01:41:01.087Z,3.83
2023-04-13T01:43:31.294Z,3.60
2023-04-13T01:46:16.595Z,3.15
2023-04-13T01:49:05.204Z,2.53
2023-04-13T01:51:54.672Z,2.88
2023-04-13T01:54:27.746Z,2.78
2023-04-13T01:56:57.305Z,2.83
2023-04-13T01:59:25.004Z,3.72
2023-04-13T02:01:52.697Z,2.97
2023-04-13T02:04:21.178Z,3.50
2023-04-13T02:06:48.648Z,2.92
2023-04-13T02:09:15.908Z,2.95
2023-04-13T02:11:44.299Z,2.80
2023-04-13T02:14:11.642Z,3.60
2023-04-13T02:16:39.294Z,2.10
2023-04-13T02:19:07.063Z,2.95
2023-04-13T02:21:35.013Z,2.60
2023-04-13T02:24:02.752Z,2.40
2023-04-13T02:26:30.029Z,2.35
2023-04-13T02:28:57.974Z,2.50
2023-04-13T02:31:25.253Z,2.15
2023-04-13T02:33:52.781Z,2.78
2023-04-13T02:36:21.584Z,1.88
2023-04-13T02:38:56.008Z,1.83
2023-04-13T02:41:29.771Z,1.92
2023-04-13T02:43:58.174Z,1.75
2023-04-13T02:46:29.361Z,2.28
2023-04-13T02:49:03.730Z,2.33
2023-04-13T02:51:37.178Z,1.60
2023-04-13T02:54:05.244Z,2.30
2023-04-13T02:56:38.152Z,2.00
2023-04-13T02:59:06.584Z,1.77
2023-04-13T03:01:33.951Z,2.55
2023-04-13T03:04:02.454Z,1.90
2023-04-13T03:06:31.376Z,1.95
2023-04-13T03:09:01.740Z,2.10
2023-04-13T03:11:36.489Z,2.05
2023-04-13T03:14:13.192Z,1.63
2023-04-13T03:16:41.963Z,1.95
2023-04-13T03:19:10.712Z,2.67
2023-04-13T03:21:41.511Z,2.00
2023-04-13T03:24:13.652Z,2.20
2023-04-13T03:26:40.953Z,2.00
2023-04-13T03:29:13.636Z,1.77
2023-04-13T03:31:43.715Z,1.98
2023-04-13T03:34:12.210Z,2.00
2023-04-13T03:36:41.476Z,1.67
2023-04-13T03:39:08.958Z,2.22
2023-04-13T03:41:38.336Z,1.92
2023-04-13T03:44:08.937Z,2.00
2023-04-13T03:46:37.692Z,1.98
2023-04-13T03:49:15.334Z,2.05
2023-04-13T03:51:42.599Z,2.00
2023-04-13T03:54:09.781Z,2.05
2023-04-13T03:56:37.245Z,1.90
2023-04-13T03:59:05.633Z,2.65
2023-04-13T04:01:32.964Z,1.80
2023-04-13T04:04:00.697Z,1.70
2023-04-13T04:06:31.255Z,1.95
2023-04-13T04:09:18.668Z,2.20
2023-04-13T04:11:47.702Z,2.17
2023-04-13T04:14:20.652Z,2.22
2023-04-13T04:16:57.879Z,2.75
2023-04-13T04:19:25.171Z,2.08
2023-04-13T04:21:53.147Z,1.67
2023-04-13T04:24:23.161Z,2.13
2023-04-13T04:26:55.928Z,2.30
2023-04-13T04:29:34.206Z,2.03
2023-04-13T04:32:10.930Z,2.15
2023-04-13T04:34:40.971Z,2.03
2023-04-13T04:37:19.695Z,1.92
2023-04-13T04:39:57.786Z,2.00
2023-04-13T04:42:26.466Z,1.88
2023-04-13T04:44:56.469Z,1.67
2023-04-13T04:47:25.015Z,2.17
2023-04-13T04:50:05.335Z,2.17
2023-04-13T04:52:37.730Z,1.67
2023-04-13T04:55:06.394Z,2.33
2023-04-13T04:57:36.349Z,2.25
2023-04-13T05:02:39.850Z,1.92
2023-04-13T05:05:11.884Z,1.95
2023-04-13T05:07:39.874Z,2.43
2023-04-13T05:10:09.456Z,2.35
2023-04-13T05:12:41.727Z,2.17
2023-04-13T05:15:09.808Z,3.17
2023-04-13T05:17:37.480Z,2.88
2023-04-13T05:20:08.016Z,2.42
2023-04-13T05:22:47.781Z,3.42
2023-04-13T05:25:15.162Z,1.90
2023-04-13T05:27:43.953Z,2.60
2023-04-13T05:30:12.101Z,2.10
2023-04-13T05:32:41.369Z,2.13
2023-04-13T05:35:10.322Z,1.83
2023-04-13T05:37:40.088Z,2.10
2023-04-13T05:40:14.213Z,1.70
2023-04-13T05:42:43.577Z,2.47
2023-04-13T05:45:17.269Z,1.98
2023-04-13T05:48:01.447Z,2.05
2023-04-13T05:50:29.304Z,1.60
2023-04-13T05:52:59.672Z,1.70
2023-04-13T05:55:33.234Z,2.05
2023-04-13T05:58:06.377Z,1.70
2023-04-13T06:00:34.607Z,2.17
2023-04-13T06:03:08.960Z,1.92
2023-04-13T06:05:37.818Z,1.35
2023-04-13T06:08:05.349Z,1.50
2023-04-13T06:10:32.916Z,1.75
2023-04-13T06:13:00.332Z,1.50
2023-04-13T06:15:27.585Z,1.88
2023-04-13T06:17:54.831Z,2.20
2023-04-13T06:20:22.260Z,1.58
2023-04-13T06:22:49.979Z,1.50
2023-04-13T06:25:20.218Z,1.75
2023-04-13T06:27:50.199Z,1.90
2023-04-13T06:30:19.463Z,1.65
2023-04-13T06:32:49.797Z,1.52
2023-04-13T06:35:20.732Z,2.28
2023-04-13T06:37:49.723Z,1.77
2023-04-13T06:40:23.474Z,1.70
2023-04-13T06:43:01.720Z,1.80
2023-04-13T06:45:38.707Z,2.08
2023-04-13T06:48:09.620Z,1.77
2023-04-13T06:50:38.793Z,1.70
2023-04-13T06:53:07.650Z,1.35
2023-04-13T06:55:35.213Z,1.20
2023-04-13T06:58:02.458Z,1.73
2023-04-13T07:00:30.579Z,1.48
2023-04-13T07:03:01.849Z,2.50
2023-04-13T07:05:30.065Z,1.92
2023-04-13T07:08:04.427Z,1.75
2023-04-13T07:10:31.929Z,1.65
2023-04-13T07:13:03.970Z,1.40
2023-04-13T07:15:32.823Z,1.67
2023-04-13T07:18:00.076Z,1.52
2023-04-13T07:20:27.747Z,1.90
2023-04-13T07:22:54.995Z,1.80
2023-04-13T07:25:22.210Z,2.00
2023-04-13T07:27:50.648Z,2.42
2023-04-13T07:30:18.608Z,1.50
2023-04-13T07:32:48.192Z,1.55
2023-04-13T07:35:16.299Z,1.52
2023-04-13T07:37:46.791Z,1.90
2023-04-13T07:40:14.466Z,1.60
2023-04-13T07:42:47.280Z,1.95
2023-04-13T07:45:15.578Z,1.70
2023-04-13T07:47:42.881Z,1.90
2023-04-13T07:50:10.970Z,1.80
2023-04-13T07:52:39.479Z,1.67
2023-04-13T07:55:08.063Z,2.08
2023-04-13T07:57:39.693Z,2.00
2023-04-13T08:00:08.396Z,2.90
2023-04-13T08:02:44.839Z,2.30
2023-04-13T08:05:17.335Z,2.33
2023-04-13T08:07:46.837Z,2.05
2023-04-13T08:10:16.489Z,2.25
2023-04-13T08:12:44.215Z,2.38
2023-04-13T08:15:14.417Z,2.03
2023-04-13T08:17:42.254Z,2.35
2023-04-13T08:20:10.133Z,2.47
2023-04-13T08:22:38.479Z,2.83
2023-04-13T08:25:06.596Z,2.90
2023-04-13T08:27:34.512Z,2.60
2023-04-13T08:30:02.492Z,2.60
2023-04-13T08:32:43.148Z,3.13
2023-04-13T08:35:11.770Z,2.78
2023-04-13T08:37:39.835Z,2.70
2023-04-13T08:40:12.232Z,2.83
2023-04-13T08:42:42.476Z,3.15
2023-04-13T08:45:12.119Z,3.08
2023-04-13T08:47:44.337Z,3.58
2023-04-13T08:50:13.202Z,3.40
2023-04-13T08:52:52.052Z,3.20
2023-04-13T08:55:19.607Z,2.95
2023-04-13T08:57:51.523Z,3.25
2023-04-13T09:00:21.998Z,3.38
2023-04-13T09:03:04.912Z,2.80
2023-04-13T09:05:39.649Z,3.15
2023-04-13T09:08:08.242Z,3.00
2023-04-13T09:10:38.467Z,2.28
2023-04-13T09:13:06.080Z,2.20
2023-04-13T09:15:33.897Z,2.88
2023-04-13T09:18:18.022Z,2.15
2023-04-13T09:21:01.521Z,2.22
2023-04-13T09:23:28.835Z,2.10
2023-04-13T09:26:08.960Z,3.08
2023-04-13T09:28:51.895Z,1.80
2023-04-13T09:31:20.168Z,1.70
2023-04-13T09:33:50.558Z,2.00
2023-04-13T09:38:55.552Z,2.00
2023-04-13T09:41:33.979Z,2.10
2023-04-13T09:44:03.781Z,1.65
2023-04-13T09:46:31.537Z,1.75
2023-04-13T09:49:05.178Z,2.53
2023-04-13T09:51:41.242Z,1.90
2023-04-13T09:54:09.066Z,1.80
2023-04-13T09:56:47.210Z,2.65
2023-04-13T09:59:15.085Z,2.38
2023-04-13T10:01:42.607Z,2.60
2023-04-13T10:04:10.204Z,1.85
2023-04-13T10:06:43.367Z,2.13
2023-04-13T10:09:10.856Z,2.47
2023-04-13T10:11:46.804Z,2.35
2023-04-13T10:14:28.217Z,2.45
2023-04-13T10:17:14.576Z,3.25
2023-04-13T10:19:49.620Z,1.83
2023-04-13T10:22:19.036Z,2.35
2023-04-13T10:24:46.609Z,2.90
2023-04-13T10:27:22.180Z,2.50
2023-04-13T10:29:50.987Z,2.80
2023-04-13T10:32:26.915Z,2.72
2023-04-13T10:34:56.007Z,2.95
2023-04-13T10:37:28.916Z,3.20
2023-04-13T10:40:09.025Z,2.97
2023-04-13T10:42:52.377Z,2.80
2023-04-13T10:45:26.237Z,3.65
2023-04-13T10:47:55.888Z,3.53
2023-04-13T10:50:27.279Z,2.92
2023-04-13T10:53:05.810Z,3.50
2023-04-13T10:55:35.342Z,3.53
2023-04-13T10:58:14.013Z,3.60
2023-04-13T11:00:47.203Z,3.97
2023-04-13T11:03:17.676Z,3.40
2023-04-13T11:05:57.805Z,3.70
2023-04-13T11:08:28.216Z,3.70
2023-04-13T11:10:57.555Z,3.40
2023-04-13T11:13:25.711Z,4.13
2023-04-13T11:16:02.976Z,3.28
2023-04-13T11:18:30.900Z,3.88
2023-04-13T11:20:58.195Z,3.72
2023-04-13T11:23:25.625Z,3.80
2023-04-13T11:26:01.219Z,3.78
2023-04-13T11:28:43.899Z,4.20
2023-04-13T11:31:12.050Z,4.82
2023-04-13T11:33:40.860Z,3.78
2023-04-13T11:36:09.908Z,3.95
2023-04-13T11:38:41.215Z,3.70
2023-04-13T11:41:15.742Z,3.90
2023-04-13T11:43:48.906Z,3.65
2023-04-13T11:46:25.414Z,3.67
2023-04-13T11:48:53.573Z,3.47
2023-04-13T11:51:22.242Z,4.00
2023-04-13T11:53:52.165Z,3.92
2023-04-13T11:56:19.615Z,4.95
2023-04-13T11:58:51.491Z,4.40
2023-04-13T12:01:26.179Z,3.53
2023-04-13T12:04:04.751Z,4.70
2023-04-13T12:06:45.951Z,5.00
2023-04-13T12:09:18.002Z,4.75
2023-04-13T12:12:08.258Z,4.35
2023-04-13T12:14:54.692Z,5.00
2023-04-13T12:17:41.410Z,4.03
2023-04-13T12:20:16.556Z,4.28
2023-04-13T12:22:55.998Z,4.40
2023-04-13T12:25:35.432Z,3.65
2023-04-13T12:28:04.233Z,5.00
2023-04-13T12:30:32.889Z,3.53
2023-04-13T12:33:00.094Z,4.25
2023-04-13T12:35:27.343Z,5.25
2023-04-13T12:37:54.576Z,4.70
2023-04-13T12:40:22.022Z,4.03
2023-04-13T12:42:49.738Z,4.00
2023-04-13T12:45:17.583Z,3.88
2023-04-13T12:47:44.878Z,3.50
2023-04-13T12:50:12.837Z,4.13
2023-04-13T12:52:43.319Z,4.05
2023-04-13T12:57:39.821Z,3.20
2023-04-13T13:00:11.341Z,3.40
2023-04-13T13:02:39.251Z,4.40
2023-04-13T13:05:09.596Z,3.80
2023-04-13T13:07:36.868Z,4.00
2023-04-13T13:10:15.152Z,3.90
2023-04-13T13:12:52.454Z,3.95
2023-04-13T13:15:19.716Z,3.28
2023-04-13T13:17:46.945Z,2.90
2023-04-13T13:20:14.604Z,3.58
2023-04-13T13:22:43.380Z,3.65
2023-04-13T13:25:10.874Z,3.42
2023-04-13T13:30:10.185Z,3.78
2023-04-13T13:32:37.573Z,3.75
2023-04-13T13:35:08.534Z,3.40
2023-04-13T13:37:36.074Z,3.22
2023-04-13T13:40:12.914Z,4.43
2023-04-13T13:42:51.284Z,3.90
2023-04-13T13:45:21.448Z,3.60
2023-04-13T13:47:55.706Z,3.70
2023-04-13T13:50:31.748Z,4.13
2023-04-13T13:53:04.210Z,3.38
2023-04-13T13:55:38.257Z,4.13
2023-04-13T13:58:05.524Z,4.28
2023-04-13T14:00:33.075Z,4.70
2023-04-13T14:03:00.962Z,4.22
2023-04-13T14:05:28.502Z,5.35
2023-04-13T14:07:55.863Z,5.60
2023-04-13T14:10:23.240Z,5.93
2023-04-13T14:12:51.968Z,6.53
2023-04-13T14:15:19.674Z,6.15
2023-04-13T14:17:58.791Z,5.47
2023-04-13T14:20:35.705Z,6.65
2023-04-13T14:23:02.999Z,7.78
2023-04-13T14:25:30.510Z,7.10
2023-04-13T14:27:57.850Z,6.63
2023-04-13T14:30:27.681Z,6.88
2023-04-13T14:32:56.477Z,7.43
2023-04-13T14:35:24.565Z,7.63
2023-04-13T14:37:52.905Z,7.63
2023-04-13T14:40:22.567Z,6.45
2023-04-13T14:42:52.879Z,6.70
2023-04-13T14:45:21.254Z,4.38
2023-04-13T14:47:48.873Z,4.55
2023-04-13T14:50:16.808Z,3.20
2023-04-13T14:52:45.979Z,3.28
2023-04-13T14:55:14.439Z,3.40
2023-04-13T14:57:42.013Z,3.45
2023-04-13T15:00:36.922Z,3.63
2023-04-13T15:03:10.963Z,4.00
2023-04-13T15:05:43.561Z,3.45
2023-04-13T15:08:11.924Z,3.65
2023-04-13T15:10:39.853Z,3.38
2023-04-13T15:13:07.331Z,4.10
2023-04-13T15:15:37.294Z,4.25
2023-04-13T15:18:06.050Z,4.15
2023-04-13T15:20:33.673Z,4.40
2023-04-13T15:23:01.058Z,4.10
2023-04-13T15:25:28.654Z,4.63
2023-04-13T15:27:58.193Z,4.43
2023-04-13T15:30:27.526Z,4.47
2023-04-13T15:33:02.447Z,4.95
2023-04-13T15:35:31.077Z,5.68
2023-04-13T15:38:04.323Z,5.18
2023-04-13T15:40:33.960Z,5.38
2023-04-13T15:43:02.275Z,6.03
2023-04-13T15:45:29.564Z,6.22
2023-04-13T15:47:57.453Z,6.15
2023-04-13T15:50:25.103Z,6.65
2023-04-13T15:52:52.356Z,6.53
2023-04-13T15:55:21.112Z,6.55
2023-04-13T15:57:50.201Z,6.32
2023-04-13T16:00:17.860Z,7.82
2023-04-13T16:02:45.241Z,7.15
2023-04-13T16:05:12.819Z,6.43
2023-04-13T16:07:40.097Z,6.72
2023-04-13T16:10:17.466Z,6.50
2023-04-13T16:12:45.543Z,6.70
2023-04-13T16:15:13.429Z,7.75
2023-04-13T16:17:44.144Z,7.28
2023-04-13T16:20:14.713Z,6.38
2023-04-13T16:22:47.111Z,7.50
2023-04-13T16:25:15.641Z,6.47
2023-04-13T16:27:43.658Z,8.50
2023-04-13T16:30:13.475Z,7.80
2023-04-13T16:32:45.781Z,6.95
2023-04-13T16:35:13.556Z,7.45
2023-04-13T16:37:45.361Z,7.15
2023-04-13T16:40:13.828Z,7.50
2023-04-13T16:42:42.433Z,6.53
2023-04-13T16:45:13.726Z,5.80
2023-04-13T16:47:42.110Z,5.10
2023-04-13T16:50:11.343Z,6.43
2023-04-13T16:52:41.840Z,6.60
2023-04-13T16:55:14.845Z,6.03
2023-04-13T16:57:43.453Z,7.18
2023-04-13T17:00:12.096Z,6.90
2023-04-13T17:02:42.065Z,7.15
2023-04-13T17:05:12.449Z,6.43
2023-04-13T17:07:43.269Z,7.57
2023-04-13T17:12:41.391Z,8.05
2023-04-13T17:15:10.099Z,8.15
2023-04-13T17:17:38.548Z,8.07
2023-04-13T17:20:07.430Z,7.68
2023-04-13T17:22:34.720Z,8.30
2023-04-13T17:25:02.066Z,8.27
2023-04-13T17:27:29.345Z,7.57
2023-04-13T17:29:58.141Z,8.13
2023-04-13T17:32:25.973Z,7.80
2023-04-13T17:34:53.422Z,8.00
2023-04-13T17:37:20.839Z,7.68
2023-04-13T17:39:50.654Z,8.05
2023-04-13T17:42:18.901Z,7.38
2023-04-13T17:44:46.386Z,8.50
2023-04-13T17:47:14.314Z,8.23
2023-04-13T17:49:41.842Z,8.23
2023-04-13T17:52:09.270Z,8.80
2023-04-13T17:54:37.622Z,9.10
2023-04-13T17:57:07.105Z,8.93
2023-04-13T17:59:34.536Z,10.10
2023-04-13T18:02:02.134Z,9.80
2023-04-13T18:04:31.619Z,9.48
2023-04-13T18:06:59.007Z,10.10
2023-04-13T18:09:28.126Z,10.50
2023-04-13T18:11:55.460Z,9.35
2023-04-13T18:14:22.798Z,10.55
2023-04-13T18:16:50.133Z,9.95
2023-04-13T18:19:17.766Z,9.73
2023-04-13T18:21:45.204Z,8.88
2023-04-13T18:24:12.481Z,10.98
2023-04-13T18:26:40.008Z,11.43
2023-04-13T18:29:08.180Z,10.77
2023-04-13T18:31:35.632Z,11.73
2023-04-13T18:34:03.479Z,12.05
2023-04-13T18:36:31.046Z,10.55
2023-04-13T18:38:58.286Z,11.60
2023-04-13T18:41:25.631Z,10.40
2023-04-13T18:43:52.794Z,11.63
2023-04-13T18:46:20.486Z,10.98
2023-04-13T18:48:47.859Z,10.88
2023-04-13T18:51:15.573Z,12.75
2023-04-13T18:53:42.822Z,12.48
2023-04-13T18:56:10.083Z,13.10
2023-04-13T18:58:37.511Z,14.20
2023-04-13T19:01:13.672Z,16.38
2023-04-13T19:03:41.457Z,15.35
2023-04-13T19:06:11.164Z,16.75
2023-04-13T19:08:39.080Z,15.98
2023-04-13T19:11:06.411Z,15.77
2023-04-13T19:13:33.889Z,15.10
2023-04-13T19:16:06.178Z,15.80
2023-04-13T19:18:34.450Z,16.30
2023-04-13T19:21:02.643Z,16.02
2023-04-13T19:23:30.050Z,14.77
2023-04-13T19:25:57.350Z,16.60
2023-04-13T19:28:25.030Z,16.67
2023-04-13T19:30:52.557Z,16.50
2023-04-13T19:33:20.120Z,15.18
2023-04-13T19:35:47.387Z,16.83
2023-04-13T19:38:14.688Z,16.30
2023-04-13T19:40:42.060Z,17.77
2023-04-13T19:43:09.356Z,15.25
2023-04-13T19:45:36.648Z,16.85
2023-04-13T19:48:04.042Z,16.83
2023-04-13T19:50:31.488Z,17.60
2023-04-13T19:52:59.088Z,17.17
2023-04-13T19:55:27.173Z,17.52
2023-04-13T19:57:54.677Z,17.05
2023-04-13T20:00:22.523Z,17.42
2023-04-13T20:02:52.595Z,17.75
2023-04-13T20:05:21.046Z,17.13
2023-04-13T20:07:48.666Z,16.52
2023-04-13T20:10:16.190Z,18.48
2023-04-13T20:12:43.477Z,17.23
2023-04-13T20:15:11.569Z,17.83
2023-04-13T20:17:39.000Z,18.98
2023-04-13T20:20:08.204Z,18.63
2023-04-13T20:22:35.557Z,17.98
2023-04-13T20:25:02.764Z,18.00
2023-04-13T20:27:30.378Z,19.83
2023-04-13T20:29:57.846Z,18.77
2023-04-13T20:32:25.342Z,20.70
2023-04-13T20:34:54.280Z,18.98
2023-04-13T20:37:22.093Z,19.38
2023-04-13T20:39:53.003Z,21.20
2023-04-13T20:42:22.476Z,19.75
2023-04-13T20:44:57.547Z,21.63
2023-04-13T20:47:31.382Z,21.00
2023-04-13T20:49:59.861Z,18.42
2023-04-13T20:52:29.944Z,21.50
2023-04-13T20:54:57.530Z,20.35
2023-04-13T20:57:24.846Z,20.13
2023-04-13T20:59:52.301Z,20.25
2023-04-13T21:02:19.812Z,22.13
2023-04-13T21:04:47.375Z,19.13
2023-04-13T21:07:15.518Z,22.25
2023-04-13T21:09:43.123Z,21.10
2023-04-13T21:12:10.802Z,20.38
2023-04-13T21:14:38.012Z,21.23
2023-04-13T21:17:05.205Z,23.08
2023-04-13T21:19:32.710Z,19.25
2023-04-13T21:22:00.117Z,21.30
2023-04-13T21:24:27.745Z,22.75
2023-04-13T21:26:55.167Z,21.08
2023-04-13T21:29:22.508Z,22.15
2023-04-13T21:31:49.962Z,20.58
2023-04-13T21:34:17.358Z,22.33
2023-04-13T21:39:17.027Z,22.30
2023-04-13T21:41:44.398Z,20.90
2023-04-13T21:44:28.233Z,20.25
2023-04-13T21:46:58.738Z,21.58
2023-04-13T21:49:26.477Z,21.17
2023-04-13T21:51:53.920Z,22.83
2023-04-13T21:54:21.345Z,19.77
2023-04-13T21:56:49.285Z,20.83
2023-04-13T21:59:16.541Z,20.02
2023-04-13T22:01:43.957Z,20.25
2023-04-13T22:04:12.784Z,22.33
2023-04-13T22:06:40.168Z,22.95
2023-04-13T22:09:07.327Z,23.05
2023-04-13T22:11:34.545Z,24.80
2023-04-13T22:14:01.760Z,22.52
2023-04-13T22:16:29.045Z,22.77
2023-04-13T22:18:56.343Z,23.15
2023-04-13T22:21:23.798Z,25.98
2023-04-13T22:23:51.204Z,24.58
2023-04-13T22:26:18.628Z,30.90
2023-04-13T22:28:45.953Z,28.10
2023-04-13T22:31:13.278Z,24.52
2023-04-13T22:33:41.220Z,34.20
2023-04-13T22:36:20.337Z,27.45
2023-04-13T22:38:48.588Z,28.20
2023-04-13T22:41:16.394Z,39.10
2023-04-13T22:43:43.596Z,25.13
2023-04-13T22:46:10.904Z,41.33
2023-04-13T22:48:38.246Z,24.27
2023-04-13T22:51:05.612Z,27.20
2023-04-13T22:53:33.054Z,25.83
2023-04-13T22:56:00.921Z,24.80
2023-04-13T22:58:28.497Z,25.15
2023-04-13T23:00:55.843Z,25.85
2023-04-13T23:03:23.491Z,23.95
2023-04-13T23:05:51.010Z,25.45
2023-04-13T23:08:18.292Z,26.42
2023-04-13T23:10:45.717Z,24.85
2023-04-13T23:13:13.020Z,23.40
2023-04-13T23:15:40.405Z,30.95
2023-04-13T23:18:07.852Z,24.05
2023-04-13T23:20:35.220Z,36.03
2023-04-13T23:23:02.389Z,28.85
2023-04-13T23:25:29.631Z,29.25
2023-04-13T23:27:56.880Z,28.00
2023-04-13T23:30:24.280Z,28.70
2023-04-13T23:32:52.098Z,29.75
2023-04-13T23:35:19.327Z,31.83
2023-04-13T23:37:46.626Z,28.15
2023-04-13T23:40:13.950Z,30.85
2023-04-13T23:42:41.802Z,28.33
2023-04-13T23:45:09.485Z,32.55
2023-04-13T23:47:36.808Z,29.05
2023-04-13T23:50:04.424Z,27.45
2023-04-13T23:52:31.774Z,30.55
2023-04-13T23:54:58.889Z,29.50
2023-04-13T23:57:26.132Z,29.48
2023-04-13T23:59:57.533Z,29.65
